Time;durP1;ratioP1;P1;durP2;ratioP2;P2;SDS_P1;SDS_P2;PMS_P1;PMS_P2;Temp;Humidity;BMP_temperature;BMP_pressure;BME280_temperature;BME280_humidity;BME280_pressure;Samples;Min_cycle;Max_cycle;Signal;HPM_P1;HPM_P2
2022/08/10 00:01:21;;;;;;;1.77;1.20;;;19.80;52.20;;;;;;5135811;27;20114;-67
2022/08/10 00:03:47;;;;;;;1.60;1.02;;;19.80;52.30;;;;;;5135714;27;20180;-63
2022/08/10 00:06:13;;;;;;;2.95;1.20;;;19.70;52.40;;;;;;5136003;27;20382;-63
2022/08/10 00:08:39;;;;;;;1.35;1.15;;;19.70;52.50;;;;;;5136854;27;20598;-67
2022/08/10 00:11:05;;;;;;;2.15;1.10;;;19.70;52.50;;;;;;5135822;27;20039;-68
2022/08/10 00:13:31;;;;;;;1.60;1.10;;;19.70;52.60;;;;;;5136833;27;20046;-67
2022/08/10 00:15:56;;;;;;;1.60;1.10;;;19.60;52.70;;;;;;5137092;27;20031;-63
2022/08/10 00:18:23;;;;;;;1.58;1.10;;;19.60;52.70;;;;;;5135463;27;20372;-67
2022/08/10 00:20:49;;;;;;;2.10;1.38;;;19.60;52.80;;;;;;5135335;27;20547;-63
2022/08/10 00:23:15;;;;;;;1.90;1.50;;;19.50;52.80;;;;;;5135704;27;20039;-63
2022/08/10 00:25:40;;;;;;;2.35;1.40;;;19.50;52.90;;;;;;5136553;27;20122;-67
2022/08/10 00:28:06;;;;;;;1.17;0.90;;;19.50;53.00;;;;;;5135542;27;20046;-68
2022/08/10 00:30:32;;;;;;;1.60;1.20;;;19.50;53.00;;;;;;5135254;27;20509;-63
2022/08/10 00:32:57;;;;;;;2.30;1.52;;;19.50;53.10;;;;;;5135223;27;20047;-62
2022/08/10 00:35:23;;;;;;;2.00;1.50;;;19.50;53.20;;;;;;5135158;27;20049;-62
2022/08/10 00:37:49;;;;;;;1.90;1.30;;;19.40;53.30;;;;;;5100827;27;20102;-68
2022/08/10 00:40:14;;;;;;;2.05;1.13;;;19.40;53.30;;;;;;5100846;27;20039;-68
2022/08/10 00:42:40;;;;;;;2.20;1.42;;;19.40;53.30;;;;;;5134898;27;20046;-63
2022/08/10 00:45:06;;;;;;;2.05;1.40;;;19.30;53.30;;;;;;5134937;27;20035;-63
2022/08/10 00:47:32;;;;;;;1.27;1.17;;;19.30;53.40;;;;;;5134999;27;20047;-63
2022/08/10 00:49:57;;;;;;;1.38;1.08;;;19.30;53.40;;;;;;5135791;27;20075;-67
2022/08/10 00:52:24;;;;;;;1.98;1.30;;;19.30;53.40;;;;;;5134690;27;20047;-63
2022/08/10 00:54:50;;;;;;;2.00;1.40;;;19.30;53.50;;;;;;5134757;27;20046;-68
2022/08/10 00:57:18;;;;;;;2.25;1.55;;;19.20;53.50;;;;;;5134429;27;20051;-68
2022/08/10 00:59:44;;;;;;;1.48;1.35;;;19.20;53.50;;;;;;5135954;27;20514;-68
2022/08/10 01:02:10;;;;;;;1.80;1.50;;;19.20;53.60;;;;;;5136001;27;20114;-69
2022/08/10 01:04:35;;;;;;;2.00;1.13;;;19.20;53.60;;;;;;5134657;27;20127;-68
2022/08/10 01:07:35;;;;;;;2.97;1.80;;;19.10;53.70;;;;;;5134744;27;20043;-67
2022/08/10 01:10:17;;;;;;;1.65;1.23;;;19.10;53.60;;;;;;5134489;27;20051;-63
2022/08/10 01:12:57;;;;;;;1.50;1.30;;;19.10;53.70;;;;;;5135827;27;20040;-63
2022/08/10 01:15:28;;;;;;;3.22;1.55;;;19.10;53.80;;;;;;5134462;27;20122;-63
2022/08/10 01:18:12;;;;;;;3.55;1.40;;;19.00;53.90;;;;;;5134270;27;20047;-67
2022/08/10 01:21:00;;;;;;;1.67;1.50;;;19.00;54.00;;;;;;5135519;27;20527;-68
2022/08/10 01:23:52;;;;;;;2.00;1.42;;;19.00;54.10;;;;;;5099800;27;20047;-68
2022/08/10 01:26:59;;;;;;;1.92;1.40;;;19.00;54.00;;;;;;5134144;27;20039;-68
2022/08/10 01:29:27;;;;;;;2.28;1.30;;;18.90;53.90;;;;;;5070115;27;20047;-63
2022/08/10 01:31:56;;;;;;;1.95;1.52;;;18.90;54.00;;;;;;5134102;27;20085;-69
2022/08/10 01:34:29;;;;;;;2.05;1.55;;;18.90;54.10;;;;;;5134062;27;20054;-65
2022/08/10 01:37:10;;;;;;;3.67;1.40;;;18.90;54.20;;;;;;5133809;27;20050;-64
2022/08/10 01:39:40;;;;;;;3.45;1.80;;;18.80;54.10;;;;;;5133865;27;20047;-64
2022/08/10 01:42:11;;;;;;;3.00;1.55;;;18.80;54.30;;;;;;5116700;27;20039;-64
2022/08/10 01:44:48;;;;;;;2.40;1.60;;;18.80;54.30;;;;;;5133802;27;20107;-64
2022/08/10 01:50:12;;;;;;;1.80;1.60;;;18.80;54.40;;;;;;5133629;27;20058;-68
2022/08/10 01:52:41;;;;;;;2.20;1.50;;;18.70;54.30;;;;;;5134985;27;20038;-68
2022/08/10 01:55:11;;;;;;;2.97;2.15;;;18.70;54.40;;;;;;5134844;27;20469;-68
2022/08/10 01:57:40;;;;;;;4.15;2.05;;;18.70;54.50;;;;;;5133339;27;20534;-68
2022/08/10 02:00:07;;;;;;;2.03;1.60;;;18.70;54.60;;;;;;5133584;27;20470;-64
2022/08/10 02:02:35;;;;;;;2.28;1.67;;;18.70;54.60;;;;;;5132641;27;20039;-64
2022/08/10 02:05:03;;;;;;;2.47;1.80;;;18.60;54.60;;;;;;5133636;27;20382;-68
2022/08/10 02:07:31;;;;;;;2.55;2.00;;;18.60;54.70;;;;;;5134729;27;20089;-64
2022/08/10 02:10:01;;;;;;;3.10;1.92;;;18.60;54.70;;;;;;5134504;27;20039;-63
2022/08/10 02:12:29;;;;;;;2.72;2.25;;;18.60;54.80;;;;;;5116055;27;20058;-63
2022/08/10 02:15:05;;;;;;;1.88;1.67;;;18.60;54.90;;;;;;5134551;27;20558;-63
2022/08/10 02:17:35;;;;;;;2.45;2.10;;;18.60;55.00;;;;;;5115942;27;20051;-63
2022/08/10 02:20:11;;;;;;;4.95;2.50;;;18.50;54.90;;;;;;5134392;27;20043;-63
2022/08/10 02:22:39;;;;;;;2.78;1.90;;;18.50;55.00;;;;;;5133260;27;20440;-67
2022/08/10 02:25:07;;;;;;;3.20;2.20;;;18.50;55.00;;;;;;5133103;27;20054;-63
2022/08/10 02:27:34;;;;;;;2.50;2.00;;;18.50;55.10;;;;;;5099276;27;20482;-63
2022/08/10 02:30:01;;;;;;;3.08;2.33;;;18.50;55.00;;;;;;5133260;27;20490;-63
2022/08/10 02:32:29;;;;;;;3.45;2.70;;;18.40;55.30;;;;;;5115747;27;20047;-68
2022/08/10 02:34:55;;;;;;;3.70;2.55;;;18.40;55.40;;;;;;5132887;27;20047;-69
2022/08/10 02:37:25;;;;;;;3.67;3.05;;;18.40;55.40;;;;;;5134010;27;20051;-67
2022/08/10 02:39:51;;;;;;;3.00;2.55;;;18.40;55.70;;;;;;5132793;27;20036;-63
2022/08/10 02:42:24;;;;;;;3.13;2.30;;;18.40;55.60;;;;;;5134162;27;20042;-62
2022/08/10 02:45:06;;;;;;;3.00;2.60;;;18.40;55.60;;;;;;5132887;27;20038;-63
2022/08/10 02:47:43;;;;;;;3.90;3.00;;;18.30;55.60;;;;;;5132971;27;20125;-63
2022/08/10 02:50:18;;;;;;;3.15;2.85;;;18.30;55.80;;;;;;5132951;27;20494;-63
2022/08/10 02:52:47;;;;;;;4.35;2.35;;;18.30;55.90;;;;;;5133153;27;20380;-63
2022/08/10 02:55:47;;;;;;;2.58;2.38;;;18.30;55.90;;;;;;5132662;27;20051;-67
2022/08/10 02:58:32;;;;;;;3.33;2.50;;;18.30;55.70;;;;;;5109188;27;20506;-68
2022/08/10 03:01:03;;;;;;;4.80;3.80;;;18.30;55.80;;;;;;5132870;28;20131;-68
2022/08/10 03:03:34;;;;;;;3.75;2.90;;;18.20;56.00;;;;;;5133843;28;20035;-68
2022/08/10 03:06:06;;;;;;;4.05;2.58;;;18.20;56.00;;;;;;5132818;28;20043;-63
2022/08/10 03:08:35;;;;;;;4.53;2.13;;;18.20;56.00;;;;;;5133675;28;20047;-63
2022/08/10 03:11:03;;;;;;;4.47;2.90;;;18.20;56.10;;;;;;5132467;28;20137;-63
2022/08/10 03:13:31;;;;;;;3.40;2.60;;;18.20;56.20;;;;;;5135324;27;20117;-63
2022/08/10 03:16:00;;;;;;;3.55;2.80;;;18.20;56.10;;;;;;5136666;27;20076;-67
2022/08/10 03:18:26;;;;;;;3.17;2.65;;;18.10;56.20;;;;;;5136624;27;20505;-68
2022/08/10 03:20:53;;;;;;;3.17;2.80;;;18.10;56.10;;;;;;5136495;27;20039;-69
2022/08/10 03:23:22;;;;;;;3.95;2.80;;;18.10;56.10;;;;;;5136524;27;20039;-68
2022/08/10 03:25:51;;;;;;;3.35;2.30;;;18.10;56.10;;;;;;5136320;27;20077;-64
2022/08/10 03:28:19;;;;;;;3.22;2.92;;;18.10;56.20;;;;;;5136374;27;20076;-63
2022/08/10 03:30:45;;;;;;;3.40;2.55;;;18.10;56.10;;;;;;5137668;27;20050;-63
2022/08/10 03:33:11;;;;;;;4.05;2.90;;;18.10;56.20;;;;;;5136591;27;20126;-67
2022/08/10 03:35:37;;;;;;;3.38;2.60;;;18.10;56.20;;;;;;5136242;27;20050;-68
2022/08/10 03:38:03;;;;;;;4.35;2.90;;;18.00;56.10;;;;;;5137637;27;20043;-68
2022/08/10 03:40:33;;;;;;;4.53;2.80;;;18.10;56.50;;;;;;5137674;27;20385;-63
2022/08/10 03:43:02;;;;;;;4.13;3.20;;;18.00;56.10;;;;;;5136244;27;20071;-63
2022/08/10 03:45:31;;;;;;;4.05;2.88;;;18.00;56.20;;;;;;5136187;27;20047;-63
2022/08/10 03:47:57;;;;;;;3.50;2.55;;;18.00;56.20;;;;;;5136014;27;20517;-64
2022/08/10 03:50:26;;;;;;;3.63;3.17;;;18.00;56.20;;;;;;5119564;27;20385;-63
2022/08/10 03:52:54;;;;;;;4.28;3.15;;;18.00;56.30;;;;;;5136060;27;20039;-63
2022/08/10 03:55:20;;;;;;;5.38;3.22;;;18.00;56.30;;;;;;5135992;27;20050;-63
2022/08/10 03:57:47;;;;;;;4.43;3.10;;;18.00;56.40;;;;;;5135857;27;20491;-63
2022/08/10 04:00:17;;;;;;;4.35;3.30;;;17.90;56.40;;;;;;5137202;27;20395;-69
2022/08/10 04:02:47;;;;;;;4.53;3.80;;;17.90;56.40;;;;;;5135700;27;20479;-63
2022/08/10 04:05:16;;;;;;;4.60;3.70;;;17.90;56.50;;;;;;5135789;27;20164;-63
2022/08/10 04:07:43;;;;;;;4.72;4.03;;;17.90;56.70;;;;;;5136979;27;20492;-68
2022/08/10 04:10:09;;;;;;;4.45;3.78;;;17.90;56.80;;;;;;5135925;27;20046;-63
2022/08/10 04:12:35;;;;;;;3.25;2.85;;;17.90;56.80;;;;;;5136869;27;20035;-68
2022/08/10 04:15:01;;;;;;;5.82;3.40;;;17.80;56.80;;;;;;5135531;27;20486;-67
2022/08/10 04:17:26;;;;;;;5.68;4.78;;;17.80;57.00;;;;;;5135384;27;20047;-67
2022/08/10 04:19:54;;;;;;;4.45;3.92;;;17.80;57.10;;;;;;5101650;27;20028;-68
2022/08/10 04:22:22;;;;;;;4.22;3.80;;;17.80;57.20;;;;;;5136526;27;20478;-68
2022/08/10 04:24:54;;;;;;;3.50;3.03;;;17.80;57.20;;;;;;5117431;27;20079;-68
2022/08/10 04:27:20;;;;;;;4.45;4.03;;;17.80;57.20;;;;;;5135437;27;20043;-68
2022/08/10 04:29:47;;;;;;;4.85;3.50;;;17.80;57.30;;;;;;5135202;27;20069;-63
2022/08/10 04:32:18;;;;;;;6.50;5.07;;;17.70;57.30;;;;;;5135540;27;20118;-63
2022/08/10 04:34:45;;;;;;;6.53;5.68;;;17.70;57.50;;;;;;5136425;27;20072;-63
2022/08/10 04:37:12;;;;;;;6.43;5.25;;;17.70;57.80;;;;;;5136302;27;20079;-63
2022/08/10 04:39:38;;;;;;;5.55;4.53;;;17.70;58.20;;;;;;5101056;27;20071;-63
2022/08/10 04:42:05;;;;;;;6.03;4.10;;;17.70;58.00;;;;;;5135255;27;20046;-68
2022/08/10 04:44:31;;;;;;;4.50;4.10;;;17.70;57.90;;;;;;5136164;27;20042;-68
2022/08/10 04:46:57;;;;;;;5.10;4.55;;;17.70;57.90;;;;;;5134924;27;20051;-68
2022/08/10 04:49:23;;;;;;;5.90;4.65;;;17.60;58.30;;;;;;5134835;27;20046;-68
2022/08/10 04:51:49;;;;;;;5.13;4.07;;;17.70;58.00;;;;;;5117831;27;20117;-68
2022/08/10 04:54:14;;;;;;;6.47;4.35;;;17.60;58.00;;;;;;5134622;27;20479;-68
2022/08/10 04:56:40;;;;;;;4.95;4.35;;;17.60;58.10;;;;;;5134491;27;20089;-68
2022/08/10 04:59:08;;;;;;;6.18;5.45;;;17.60;58.10;;;;;;5134764;27;20054;-68
2022/08/10 05:01:35;;;;;;;6.80;5.55;;;17.60;58.50;;;;;;5134626;27;20035;-68
2022/08/10 05:04:01;;;;;;;7.50;6.70;;;17.70;58.90;;;;;;5135873;27;20478;-68
2022/08/10 05:06:27;;;;;;;8.10;7.30;;;17.70;59.10;;;;;;5100414;27;20039;-68
2022/08/10 05:08:52;;;;;;;8.38;7.53;;;17.70;59.60;;;;;;5135738;27;20101;-68
2022/08/10 05:11:18;;;;;;;9.32;7.53;;;17.60;60.00;;;;;;5134415;27;20043;-68
2022/08/10 05:13:44;;;;;;;8.93;7.78;;;17.70;60.50;;;;;;5117345;27;20039;-67
2022/08/10 05:16:10;;;;;;;10.23;8.25;;;17.70;60.90;;;;;;5134392;27;20045;-67
2022/08/10 05:18:35;;;;;;;7.40;5.80;;;17.70;61.10;;;;;;5135647;27;20132;-63
2022/08/10 05:21:01;;;;;;;10.43;8.60;;;17.70;61.20;;;;;;5134221;27;20069;-62
2022/08/10 05:23:27;;;;;;;9.85;8.20;;;17.80;61.30;;;;;;5135492;27;20050;-63
2022/08/10 05:25:53;;;;;;;9.18;7.65;;;17.80;61.60;;;;;;5134364;27;20558;-62
2022/08/10 05:28:18;;;;;;;8.13;6.88;;;17.90;61.50;;;;;;5134125;27;20047;-62
2022/08/10 05:30:44;;;;;;;9.18;7.82;;;17.90;61.80;;;;;;5135435;27;20080;-62
2022/08/10 05:33:10;;;;;;;10.13;9.02;;;17.90;61.60;;;;;;5134024;27;20081;-62
2022/08/10 05:35:37;;;;;;;8.68;7.13;;;17.90;61.80;;;;;;5135292;27;20046;-63
2022/08/10 05:38:04;;;;;;;7.82;6.85;;;18.00;61.70;;;;;;5134125;27;20191;-62
2022/08/10 05:40:30;;;;;;;8.18;6.82;;;18.00;61.80;;;;;;5099742;27;20047;-63
2022/08/10 05:42:56;;;;;;;8.45;6.78;;;18.00;61.80;;;;;;5116730;27;20046;-62
2022/08/10 05:45:26;;;;;;;9.82;7.95;;;18.00;61.80;;;;;;5133836;27;20047;-62
2022/08/10 05:47:53;;;;;;;9.45;7.57;;;18.10;62.30;;;;;;5133764;27;20508;-63
2022/08/10 05:50:25;;;;;;;11.23;9.32;;;18.10;62.60;;;;;;5134026;27;20490;-67
2022/08/10 05:52:51;;;;;;;10.45;8.35;;;18.10;63.10;;;;;;5116474;27;20043;-67
2022/08/10 05:55:17;;;;;;;11.90;9.48;;;18.20;63.80;;;;;;5134836;27;20435;-67
2022/08/10 05:57:43;;;;;;;11.38;9.40;;;18.20;64.50;;;;;;5116072;27;20573;-67
2022/08/10 06:00:14;;;;;;;10.73;8.35;;;18.40;65.20;;;;;;5133546;27;20043;-67
2022/08/10 06:02:46;;;;;;;10.60;8.95;;;18.60;65.20;;;;;;5133726;27;20117;-67
2022/08/10 06:05:16;;;;;;;10.73;9.05;;;18.90;65.30;;;;;;5099992;27;20039;-68
2022/08/10 06:07:53;;;;;;;9.25;8.20;;;19.30;65.00;;;;;;5134474;27;20494;-67
2022/08/10 06:10:21;;;;;;;10.32;7.97;;;19.70;64.00;;;;;;5133516;27;20061;-68
2022/08/10 06:14:59;;;;;;;9.10;8.18;;;20.10;63.20;;;;;;5116370;27;20411;-67
2022/08/10 06:15:37;;;;;;;9.18;7.80;;;20.40;62.80;;;;;;5115916;27;20043;-67
2022/08/10 06:18:04;;;;;;;9.85;7.75;;;20.70;62.10;;;;;;5133079;27;20078;-67
2022/08/10 06:20:30;;;;;;;10.10;7.15;;;21.00;61.30;;;;;;5133078;27;20034;-69
2022/08/10 06:22:59;;;;;;;9.55;6.78;;;21.30;61.00;;;;;;5133144;27;20043;-67
2022/08/10 06:25:27;;;;;;;7.28;6.50;;;21.40;59.90;;;;;;5098983;27;20041;-68
2022/08/10 06:27:54;;;;;;;7.88;7.03;;;21.50;59.60;;;;;;5133194;27;20465;-67
2022/08/10 06:30:22;;;;;;;8.82;6.75;;;21.60;59.40;;;;;;5134266;27;20039;-69
2022/08/10 06:32:50;;;;;;;7.45;6.05;;;21.80;59.10;;;;;;5134232;27;20051;-67
2022/08/10 06:35:17;;;;;;;8.77;5.90;;;21.90;58.70;;;;;;5134160;27;20039;-69
2022/08/10 06:37:43;;;;;;;6.50;5.68;;;22.10;58.70;;;;;;5132925;27;20035;-68
2022/08/10 06:40:10;;;;;;;7.38;5.18;;;22.30;58.30;;;;;;5133025;27;20042;-68
2022/08/10 06:42:41;;;;;;;6.28;4.32;;;22.70;57.70;;;;;;5098785;27;20083;-69
2022/08/10 06:45:14;;;;;;;6.82;5.50;;;23.00;56.90;;;;;;5115635;27;20047;-69
2022/08/10 06:48:08;;;;;;;7.25;4.68;;;23.30;56.10;;;;;;5133764;27;20039;-69
2022/08/10 06:50:42;;;;;;;5.65;4.75;;;23.60;55.60;;;;;;5132653;27;20043;-68
2022/08/10 06:53:20;;;;;;;6.43;4.88;;;23.80;55.40;;;;;;5133832;27;20032;-68
2022/08/10 06:55:56;;;;;;;6.85;5.40;;;24.10;54.70;;;;;;5132778;27;20382;-67
2022/08/10 06:58:27;;;;;;;5.63;3.75;;;24.40;54.20;;;;;;5132352;27;20490;-68
2022/08/10 07:00:55;;;;;;;5.47;3.90;;;24.60;53.20;;;;;;5115621;28;20043;-68
2022/08/10 07:03:30;;;;;;;5.93;4.05;;;24.90;52.50;;;;;;5133812;28;20092;-68
2022/08/10 07:05:58;;;;;;;5.10;3.35;;;25.00;52.50;;;;;;5132687;28;20038;-68
2022/08/10 07:08:25;;;;;;;5.57;3.80;;;25.20;52.00;;;;;;5133667;28;20500;-67
2022/08/10 07:10:53;;;;;;;6.07;3.75;;;25.40;51.50;;;;;;5132406;28;20043;-68
2022/08/10 07:13:20;;;;;;;4.85;3.50;;;25.50;51.40;;;;;;5132713;28;20070;-68
2022/08/10 07:15:50;;;;;;;6.50;3.25;;;25.60;51.20;;;;;;5133753;28;20051;-68
2022/08/10 07:18:18;;;;;;;6.03;3.53;;;25.70;50.80;;;;;;5098207;28;20171;-69
2022/08/10 07:20:45;;;;;;;4.78;3.40;;;25.80;50.90;;;;;;5132871;28;20386;-69
2022/08/10 07:23:12;;;;;;;5.25;3.38;;;26.00;50.80;;;;;;5132439;28;20046;-68
2022/08/10 07:25:41;;;;;;;5.07;3.60;;;26.10;51.00;;;;;;5098417;28;20082;-69
2022/08/10 07:28:07;;;;;;;5.95;3.75;;;26.20;49.80;;;;;;5132405;28;20050;-70
2022/08/10 07:30:37;;;;;;;5.05;2.92;;;26.40;49.50;;;;;;5133697;28;20070;-70
2022/08/10 07:33:05;;;;;;;4.50;3.40;;;26.50;49.60;;;;;;5133524;28;20035;-69
2022/08/10 07:35:32;;;;;;;6.30;3.13;;;26.60;49.20;;;;;;5132285;28;20139;-69
2022/08/10 07:37:58;;;;;;;4.55;2.80;;;26.70;49.00;;;;;;5132085;28;20498;-68
2022/08/10 07:40:25;;;;;;;4.60;2.45;;;26.80;48.80;;;;;;5133366;28;20043;-70
2022/08/10 07:42:55;;;;;;;4.20;2.50;;;26.90;48.30;;;;;;5132433;28;20382;-70
2022/08/10 07:45:21;;;;;;;3.13;2.00;;;26.90;48.00;;;;;;5132134;28;20046;-69
2022/08/10 07:48:24;;;;;;;4.38;2.33;;;27.10;47.90;;;;;;5115068;28;20371;-69
2022/08/10 07:50:54;;;;;;;4.70;2.20;;;27.20;47.90;;;;;;5133446;28;20523;-69
2022/08/10 07:53:23;;;;;;;4.85;2.15;;;27.30;47.70;;;;;;5114921;28;20035;-69
2022/08/10 07:55:52;;;;;;;6.97;2.75;;;27.30;47.20;;;;;;5131927;28;20078;-69
2022/08/10 07:58:20;;;;;;;6.15;2.40;;;27.20;46.80;;;;;;5131714;28;20051;-69
2022/08/10 08:00:49;;;;;;;3.58;2.00;;;27.10;46.90;;;;;;5133953;27;20052;-69
2022/08/10 08:03:18;;;;;;;2.70;1.65;;;27.00;46.90;;;;;;5135797;27;20479;-69
2022/08/10 08:05:45;;;;;;;4.22;2.08;;;26.80;47.10;;;;;;5135765;27;20114;-69
2022/08/10 08:08:13;;;;;;;5.03;2.25;;;26.70;47.60;;;;;;5135636;27;20043;-70
2022/08/10 08:10:40;;;;;;;5.15;2.10;;;26.70;47.30;;;;;;5135592;27;20498;-69
2022/08/10 08:13:07;;;;;;;3.35;2.22;;;26.60;48.20;;;;;;5135985;27;20482;-69
2022/08/10 08:15:33;;;;;;;3.80;1.60;;;26.70;47.50;;;;;;5101587;27;20132;-69
2022/08/10 08:18:01;;;;;;;4.65;2.38;;;26.70;47.10;;;;;;5136767;27;20039;-69
2022/08/10 08:20:29;;;;;;;4.07;1.65;;;26.70;47.40;;;;;;5135470;27;20078;-69
2022/08/10 08:22:56;;;;;;;4.55;2.33;;;26.80;47.50;;;;;;5135436;27;20039;-69
2022/08/10 08:25:22;;;;;;;3.88;2.28;;;26.90;47.70;;;;;;5135395;27;20035;-69
2022/08/10 08:27:54;;;;;;;2.95;1.98;;;27.10;47.20;;;;;;5118148;27;20043;-69
2022/08/10 08:30:22;;;;;;;3.58;2.17;;;27.10;47.20;;;;;;5136562;27;20039;-68
2022/08/10 08:32:48;;;;;;;6.13;2.20;;;27.20;47.30;;;;;;5135315;27;20039;-68
2022/08/10 08:35:17;;;;;;;3.58;2.05;;;27.10;46.80;;;;;;5118039;27;20164;-69
2022/08/10 08:37:48;;;;;;;3.55;1.70;;;27.10;47.30;;;;;;5136373;27;20179;-69
2022/08/10 08:40:26;;;;;;;3.15;1.50;;;27.10;47.10;;;;;;5101041;27;20039;-69
2022/08/10 08:43:20;;;;;;;2.72;1.48;;;27.20;47.30;;;;;;5135159;27;20505;-69
2022/08/10 08:46:00;;;;;;;4.32;1.70;;;27.30;46.10;;;;;;5135073;27;20121;-69
2022/08/10 08:49:05;;;;;;;3.35;1.70;;;27.40;46.10;;;;;;5135249;27;20047;-69
2022/08/10 08:51:42;;;;;;;6.35;1.73;;;27.40;46.40;;;;;;5016460;28;20046;-69
2022/08/10 08:54:35;;;;;;;3.88;1.30;;;27.50;46.60;;;;;;5104403;27;20062;-69
2022/08/10 08:57:22;;;;;;;4.50;2.03;;;27.60;45.90;;;;;;5134738;27;20136;-68
2022/08/10 08:59:56;;;;;;;3.78;1.38;;;27.70;45.90;;;;;;5135975;27;20604;-63
2022/08/10 09:02:53;;;;;;;5.20;1.73;;;27.70;45.60;;;;;;5134691;27;20088;-63
2022/08/10 09:05:41;;;;;;;3.90;1.63;;;27.90;45.90;;;;;;5117731;27;20039;-63
2022/08/10 09:08:18;;;;;;;3.20;1.17;;;28.00;45.70;;;;;;5134650;27;20053;-64
2022/08/10 09:10:57;;;;;;;4.45;1.90;;;28.10;46.30;;;;;;5134334;27;20084;-64
2022/08/10 09:13:41;;;;;;;3.88;1.48;;;28.20;45.80;;;;;;5134523;27;20050;-64
2022/08/10 09:16:28;;;;;;;4.25;1.58;;;28.30;44.70;;;;;;5134389;27;20051;-64
2022/08/10 09:19:15;;;;;;;2.80;1.40;;;28.50;45.00;;;;;;5134390;27;20538;-64
2022/08/10 09:21:47;;;;;;;2.88;1.35;;;28.60;44.70;;;;;;5135526;27;20039;-64
2022/08/10 09:24:25;;;;;;;2.65;1.33;;;28.70;44.50;;;;;;5135784;27;20035;-62
2022/08/10 09:26:54;;;;;;;3.63;1.67;;;28.80;44.30;;;;;;5135376;27;20546;-64
2022/08/10 09:29:26;;;;;;;2.80;1.30;;;28.90;44.00;;;;;;5099926;27;20091;-64
2022/08/10 09:32:20;;;;;;;2.42;1.40;;;28.90;43.40;;;;;;5134392;27;20078;-69
2022/08/10 09:35:04;;;;;;;2.42;1.67;;;28.90;43.80;;;;;;5134099;27;20508;-69
2022/08/10 09:37:50;;;;;;;2.30;1.23;;;29.00;43.40;;;;;;5133906;27;20075;-69
2022/08/10 09:40:25;;;;;;;2.92;1.27;;;29.10;42.10;;;;;;5133909;27;20046;-69
2022/08/10 09:43:07;;;;;;;3.38;1.67;;;29.10;41.90;;;;;;5099735;27;20114;-69
2022/08/10 09:46:14;;;;;;;2.30;1.30;;;29.10;42.40;;;;;;5135245;27;20179;-69
2022/08/10 09:48:53;;;;;;;2.80;1.52;;;29.10;42.30;;;;;;5099779;27;20071;-69
2022/08/10 09:51:37;;;;;;;2.00;1.10;;;28.90;42.50;;;;;;5133815;27;20047;-68
2022/08/10 09:54:22;;;;;;;3.25;1.30;;;28.90;42.40;;;;;;5135045;27;20046;-69
2022/08/10 09:57:00;;;;;;;3.15;1.27;;;29.00;43.10;;;;;;5133374;27;20108;-69
2022/08/10 09:59:35;;;;;;;3.40;1.20;;;29.00;42.70;;;;;;5116452;27;20051;-69
2022/08/10 10:02:20;;;;;;;4.25;1.63;;;29.10;42.50;;;;;;5134912;27;20072;-68
2022/08/10 10:05:03;;;;;;;2.97;1.30;;;29.20;42.40;;;;;;5134785;27;20106;-69
2022/08/10 10:07:29;;;;;;;3.25;1.50;;;29.30;42.20;;;;;;5133431;27;20043;-68
2022/08/10 10:09:55;;;;;;;2.83;1.15;;;29.50;42.20;;;;;;5133332;27;20051;-68
2022/08/10 10:12:43;;;;;;;3.80;1.30;;;29.50;41.30;;;;;;5133371;27;20095;-68
2022/08/10 10:15:30;;;;;;;3.42;1.40;;;29.60;40.90;;;;;;5134510;27;20122;-69
2022/08/10 10:18:01;;;;;;;2.72;1.27;;;29.60;40.30;;;;;;5134634;27;20440;-69
2022/08/10 10:20:40;;;;;;;3.45;1.20;;;29.50;39.80;;;;;;5133137;27;20107;-69
2022/08/10 10:23:41;;;;;;;3.60;1.40;;;29.40;39.70;;;;;;5133695;27;20038;-69
2022/08/10 10:26:22;;;;;;;3.05;1.20;;;29.40;40.60;;;;;;5132772;27;20087;-68
2022/08/10 10:29:04;;;;;;;1.98;0.98;;;29.40;40.60;;;;;;5132913;27;20079;-69
2022/08/10 10:31:30;;;;;;;2.28;1.05;;;29.50;40.80;;;;;;5134277;27;20049;-68
2022/08/10 10:34:10;;;;;;;4.13;1.15;;;29.60;40.00;;;;;;5132947;27;20039;-68
2022/08/10 10:36:40;;;;;;;2.83;1.13;;;29.60;39.70;;;;;;5116066;27;20039;-68
2022/08/10 10:39:06;;;;;;;3.30;0.80;;;29.50;39.80;;;;;;5134503;27;20059;-68
2022/08/10 10:41:55;;;;;;;6.53;1.25;;;29.50;38.70;;;;;;5115820;27;20039;-68
2022/08/10 10:45:07;;;;;;;3.00;1.00;;;29.50;38.60;;;;;;5113643;27;20133;-68
2022/08/10 10:47:33;;;;;;;2.30;1.20;;;29.60;38.60;;;;;;5014250;28;20049;-68
2022/08/10 10:50:09;;;;;;;2.67;0.95;;;29.60;38.90;;;;;;5112342;27;20058;-67
2022/08/10 10:52:50;;;;;;;1.55;0.95;;;29.60;38.30;;;;;;5133153;27;20035;-68
2022/08/10 10:55:44;;;;;;;2.20;0.63;;;29.60;38.50;;;;;;5132594;27;20043;-68
2022/08/10 10:58:25;;;;;;;1.42;0.50;;;29.60;38.00;;;;;;5132435;27;20062;-68
2022/08/10 11:00:57;;;;;;;1.95;0.95;;;29.70;38.10;;;;;;5133897;27;20043;-68
2022/08/10 11:03:53;;;;;;;1.95;0.95;;;29.70;38.20;;;;;;5132458;27;20039;-68
2022/08/10 11:06:57;;;;;;;2.90;0.90;;;29.80;36.90;;;;;;5097863;28;20514;-68
2022/08/10 11:09:55;;;;;;;2.10;1.00;;;29.80;37.80;;;;;;5133897;28;20035;-67
2022/08/10 11:12:30;;;;;;;2.75;0.80;;;29.80;37.70;;;;;;5115377;28;20119;-68
2022/08/10 11:15:08;;;;;;;2.88;1.10;;;30.00;38.10;;;;;;5132791;28;20378;-68
2022/08/10 11:17:51;;;;;;;3.00;0.90;;;30.10;38.20;;;;;;5115243;28;20054;-67
2022/08/10 11:20:21;;;;;;;3.83;0.93;;;30.20;37.20;;;;;;5132344;28;20066;-68
2022/08/10 11:23:17;;;;;;;2.28;0.98;;;30.20;36.90;;;;;;5132336;28;20120;-68
2022/08/10 11:26:09;;;;;;;3.13;0.90;;;30.20;36.90;;;;;;5132476;28;20035;-64
2022/08/10 11:28:44;;;;;;;1.33;0.90;;;30.30;36.20;;;;;;5121904;28;20452;-63
2022/08/10 11:31:12;;;;;;;2.92;1.15;;;30.30;35.70;;;;;;5133732;28;20120;-63
2022/08/10 11:33:47;;;;;;;1.10;0.60;;;30.30;35.40;;;;;;5115369;27;20375;-63
2022/08/10 11:36:57;;;;;;;2.25;0.85;;;30.20;36.10;;;;;;5119366;27;20164;-63
2022/08/10 11:39:22;;;;;;;2.85;1.00;;;30.20;36.60;;;;;;5136199;27;20485;-63
2022/08/10 11:42:12;;;;;;;1.73;1.10;;;30.20;36.80;;;;;;5137529;27;20100;-63
2022/08/10 11:45:01;;;;;;;1.60;0.80;;;30.20;36.90;;;;;;5118373;27;20051;-63
2022/08/10 11:47:53;;;;;;;2.35;1.00;;;30.30;37.40;;;;;;5136217;27;20118;-63
2022/08/10 11:50:38;;;;;;;2.70;1.02;;;30.30;36.20;;;;;;5118345;27;20054;-63
2022/08/10 11:53:28;;;;;;;1.50;0.77;;;30.10;36.10;;;;;;5136084;27;20049;-66
2022/08/10 11:55:56;;;;;;;2.13;0.90;;;30.10;35.40;;;;;;5135958;27;20505;-68
2022/08/10 12:01:26;;;;;;;0.98;0.60;;;30.00;35.20;;;;;;5135923;27;20043;-67
2022/08/10 12:03:53;;;;;;;2.35;0.93;;;29.90;35.40;;;;;;5137103;27;20034;-68
2022/08/10 12:06:21;;;;;;;1.95;0.80;;;29.90;35.70;;;;;;5118973;27;20406;-68
2022/08/10 12:08:49;;;;;;;2.95;0.60;;;29.90;35.30;;;;;;5136045;27;20554;-67
2022/08/10 12:11:20;;;;;;;1.58;0.80;;;29.80;34.80;;;;;;5137170;27;20401;-68
2022/08/10 12:14:01;;;;;;;2.17;0.80;;;29.70;34.40;;;;;;5137107;27;20053;-67
2022/08/10 12:16:30;;;;;;;1.48;0.70;;;29.60;34.70;;;;;;5135526;27;20043;-68
2022/08/10 12:19:08;;;;;;;2.13;0.80;;;29.50;35.10;;;;;;5135505;27;20479;-67
2022/08/10 12:22:15;;;;;;;1.83;0.77;;;29.50;34.80;;;;;;5136684;27;20039;-67
2022/08/10 12:24:59;;;;;;;4.22;1.27;;;29.60;34.70;;;;;;5105657;27;20506;-67
2022/08/10 12:27:40;;;;;;;1.38;0.73;;;29.50;34.90;;;;;;5135803;27;20104;-63
2022/08/10 12:30:13;;;;;;;1.73;0.95;;;29.50;35.70;;;;;;5135392;27;20050;-62
2022/08/10 12:32:41;;;;;;;;;;;29.50;35.50;;;;;;5135624;27;20447;-62
2022/08/10 12:35:24;;;;;;;1.42;0.70;;;29.60;34.90;;;;;;5136583;27;20014;-62
2022/08/10 12:38:01;;;;;;;2.83;0.68;;;29.60;35.40;;;;;;5135166;27;20070;-63
2022/08/10 12:40:30;;;;;;;1.88;0.73;;;29.60;35.60;;;;;;5118037;27;20043;-67
2022/08/10 12:42:56;;;;;;;3.22;0.90;;;29.70;35.80;;;;;;5135468;27;20050;-67
2022/08/10 12:45:39;;;;;;;1.58;0.70;;;29.70;35.50;;;;;;5117377;27;20402;-68
2022/08/10 12:48:22;;;;;;;1.93;1.20;;;29.80;35.90;;;;;;5136144;27;20070;-68
2022/08/10 12:51:05;;;;;;;1.45;0.70;;;29.90;36.00;;;;;;5135230;27;20066;-68
2022/08/10 12:53:57;;;;;;;1.95;0.85;;;30.00;36.00;;;;;;5134965;27;20131;-68
2022/08/10 12:56:30;;;;;;;2.75;1.00;;;30.00;35.30;;;;;;5100652;27;20130;-68
2022/08/10 12:58:57;;;;;;;1.55;0.80;;;29.90;35.50;;;;;;5134581;27;20051;-68
2022/08/10 13:01:26;;;;;;;3.45;1.10;;;30.00;36.20;;;;;;5134740;27;20046;-68
2022/08/10 13:03:56;;;;;;;1.50;0.85;;;30.00;36.10;;;;;;5134682;27;20482;-67
2022/08/10 13:06:23;;;;;;;1.90;1.00;;;30.00;36.10;;;;;;5135904;27;20027;-67
2022/08/10 13:09:07;;;;;;;2.45;0.80;;;30.10;36.10;;;;;;5136160;27;20042;-68
2022/08/10 13:11:46;;;;;;;3.30;0.80;;;30.20;35.50;;;;;;5136048;27;20070;-67
2022/08/10 13:14:29;;;;;;;2.63;0.90;;;30.10;35.30;;;;;;5134867;27;20058;-67
2022/08/10 13:16:56;;;;;;;2.30;1.13;;;30.10;34.90;;;;;;5135677;27;20118;-67
2022/08/10 13:19:24;;;;;;;3.28;1.00;;;30.10;34.60;;;;;;5134380;27;20363;-67
2022/08/10 13:21:51;;;;;;;1.88;0.88;;;30.00;35.20;;;;;;5134522;27;20070;-67